Midland, Missouri
Current Conditions -  °F | °C
As of 4:55 PM on Tuesday 25 Nov 2014 (Local Time) from KIRK Reporting Station
Clear Clear  
Wind Chill: 27°   Ceiling: Unl
Heat Index: 32°   Visibility: 10mi
Dew Point: 16°   Wind: 5mph
Humidity: 52%   Direction: 210°SSW
Pressure: 30.12"   Gusts: NA
Location:  40.2969°N, 92.7524°W
Report Text: KIRK 252255Z AUTO 21004KT 10SM CLR 00/M09 A3012 RMK AO2 SLP213 T00001089
Loading
Personal Weather Stations






























Interactive Weather Map New forecast layout! Learn more

10-Day Weather Forecast

Advertisements
Track Severe Weather on mobile